sensor_id;sensor_type;location;lat;lon;timestamp;P1;durP1;ratioP1;P2;durP2;ratioP2
62554;SDS011;48610;52.144;8.624;2023-08-17T00:02:47;8.10;;;3.30;;
62554;SDS011;48610;52.144;8.624;2023-08-17T00:05:48;7.47;;;3.50;;
62554;SDS011;48610;52.144;8.624;2023-08-17T00:08:48;10.15;;;3.35;;
62554;SDS011;48610;52.144;8.624;2023-08-17T00:11:49;8.70;;;3.33;;
62554;SDS011;48610;52.144;8.624;2023-08-17T00:14:50;7.32;;;3.30;;
62554;SDS011;48610;52.144;8.624;2023-08-17T00:17:51;8.32;;;3.10;;
62554;SDS011;48610;52.144;8.624;2023-08-17T00:20:51;15.65;;;3.72;;
62554;SDS011;48610;52.144;8.624;2023-08-17T00:23:52;12.50;;;3.50;;
62554;SDS011;48610;52.144;8.624;2023-08-17T00:26:52;9.65;;;3.38;;
62554;SDS011;48610;52.144;8.624;2023-08-17T00:29:53;8.98;;;3.40;;
62554;SDS011;48610;52.144;8.624;2023-08-17T00:32:54;17.75;;;4.03;;
62554;SDS011;48610;52.144;8.624;2023-08-17T00:35:54;5.40;;;3.35;;
62554;SDS011;48610;52.144;8.624;2023-08-17T00:38:55;6.72;;;3.15;;
62554;SDS011;48610;52.144;8.624;2023-08-17T00:41:55;6.10;;;3.83;;
62554;SDS011;48610;52.144;8.624;2023-08-17T00:44:56;11.98;;;4.15;;
62554;SDS011;48610;52.144;8.624;2023-08-17T00:47:57;9.77;;;3.60;;
62554;SDS011;48610;52.144;8.624;2023-08-17T00:50:58;9.77;;;3.72;;
62554;SDS011;48610;52.144;8.624;2023-08-17T00:54:00;8.98;;;3.45;;
62554;SDS011;48610;52.144;8.624;2023-08-17T00:57:02;8.52;;;3.60;;
62554;SDS011;48610;52.144;8.624;2023-08-17T01:00:06;12.50;;;4.03;;
62554;SDS011;48610;52.144;8.624;2023-08-17T01:03:08;5.35;;;3.45;;
62554;SDS011;48610;52.144;8.624;2023-08-17T01:06:09;8.88;;;3.47;;
62554;SDS011;48610;52.144;8.624;2023-08-17T01:09:10;9.73;;;3.83;;
62554;SDS011;48610;52.144;8.624;2023-08-17T01:12:17;10.15;;;3.60;;
62554;SDS011;48610;52.144;8.624;2023-08-17T01:15:30;14.52;;;4.35;;
62554;SDS011;48610;52.144;8.624;2023-08-17T01:18:36;9.02;;;3.70;;
62554;SDS011;48610;52.144;8.624;2023-08-17T01:21:44;13.52;;;4.00;;
62554;SDS011;48610;52.144;8.624;2023-08-17T01:24:49;13.57;;;4.45;;
62554;SDS011;48610;52.144;8.624;2023-08-17T01:27:50;9.70;;;4.70;;
62554;SDS011;48610;52.144;8.624;2023-08-17T01:30:55;10.80;;;4.60;;
62554;SDS011;48610;52.144;8.624;2023-08-17T01:34:04;6.97;;;4.07;;
62554;SDS011;48610;52.144;8.624;2023-08-17T01:37:08;10.23;;;4.28;;
62554;SDS011;48610;52.144;8.624;2023-08-17T01:40:11;11.70;;;4.30;;
62554;SDS011;48610;52.144;8.624;2023-08-17T01:43:13;14.02;;;3.72;;
62554;SDS011;48610;52.144;8.624;2023-08-17T01:46:16;11.68;;;3.90;;
62554;SDS011;48610;52.144;8.624;2023-08-17T01:49:17;12.02;;;4.43;;
62554;SDS011;48610;52.144;8.624;2023-08-17T01:52:18;7.65;;;4.40;;
62554;SDS011;48610;52.144;8.624;2023-08-17T01:55:20;12.60;;;4.53;;
62554;SDS011;48610;52.144;8.624;2023-08-17T01:58:23;13.05;;;4.95;;
62554;SDS011;48610;52.144;8.624;2023-08-17T02:01:23;10.60;;;4.80;;
62554;SDS011;48610;52.144;8.624;2023-08-17T02:04:24;11.85;;;4.50;;
62554;SDS011;48610;52.144;8.624;2023-08-17T02:07:25;8.27;;;4.40;;
62554;SDS011;48610;52.144;8.624;2023-08-17T02:10:26;12.93;;;4.50;;
62554;SDS011;48610;52.144;8.624;2023-08-17T02:13:26;13.70;;;4.90;;
62554;SDS011;48610;52.144;8.624;2023-08-17T02:16:27;13.13;;;4.65;;
62554;SDS011;48610;52.144;8.624;2023-08-17T02:19:28;10.38;;;4.53;;
62554;SDS011;48610;52.144;8.624;2023-08-17T02:22:28;13.43;;;4.65;;
62554;SDS011;48610;52.144;8.624;2023-08-17T02:25:29;11.10;;;3.92;;
62554;SDS011;48610;52.144;8.624;2023-08-17T02:28:35;8.57;;;4.63;;
62554;SDS011;48610;52.144;8.624;2023-08-17T02:31:35;12.75;;;4.82;;
62554;SDS011;48610;52.144;8.624;2023-08-17T02:34:36;9.73;;;4.50;;
62554;SDS011;48610;52.144;8.624;2023-08-17T02:37:37;9.60;;;4.95;;
62554;SDS011;48610;52.144;8.624;2023-08-17T02:40:37;8.88;;;4.97;;
62554;SDS011;48610;52.144;8.624;2023-08-17T02:43:38;10.65;;;5.10;;
62554;SDS011;48610;52.144;8.624;2023-08-17T02:46:38;7.28;;;4.38;;
62554;SDS011;48610;52.144;8.624;2023-08-17T02:49:39;12.50;;;4.60;;
62554;SDS011;48610;52.144;8.624;2023-08-17T02:52:40;9.77;;;4.80;;
62554;SDS011;48610;52.144;8.624;2023-08-17T02:55:40;13.02;;;5.07;;
62554;SDS011;48610;52.144;8.624;2023-08-17T02:58:41;13.50;;;5.25;;
62554;SDS011;48610;52.144;8.624;2023-08-17T03:01:42;9.05;;;4.82;;
62554;SDS011;48610;52.144;8.624;2023-08-17T03:04:44;10.05;;;4.80;;
62554;SDS011;48610;52.144;8.624;2023-08-17T03:07:45;13.43;;;4.57;;
62554;SDS011;48610;52.144;8.624;2023-08-17T03:10:45;12.95;;;4.68;;
62554;SDS011;48610;52.144;8.624;2023-08-17T03:13:46;8.80;;;4.80;;
62554;SDS011;48610;52.144;8.624;2023-08-17T03:16:48;10.05;;;5.20;;
62554;SDS011;48610;52.144;8.624;2023-08-17T03:19:48;11.93;;;4.63;;
62554;SDS011;48610;52.144;8.624;2023-08-17T03:22:49;9.18;;;4.88;;
62554;SDS011;48610;52.144;8.624;2023-08-17T03:25:52;9.75;;;4.95;;
62554;SDS011;48610;52.144;8.624;2023-08-17T03:28:54;14.65;;;4.93;;
62554;SDS011;48610;52.144;8.624;2023-08-17T03:31:54;12.52;;;4.90;;
62554;SDS011;48610;52.144;8.624;2023-08-17T03:34:55;10.32;;;4.95;;
62554;SDS011;48610;52.144;8.624;2023-08-17T03:37:55;16.55;;;5.55;;
62554;SDS011;48610;52.144;8.624;2023-08-17T03:40:56;11.00;;;4.30;;
62554;SDS011;48610;52.144;8.624;2023-08-17T03:43:57;14.45;;;4.82;;
62554;SDS011;48610;52.144;8.624;2023-08-17T03:46:57;14.02;;;5.47;;
62554;SDS011;48610;52.144;8.624;2023-08-17T03:49:58;11.80;;;5.22;;
62554;SDS011;48610;52.144;8.624;2023-08-17T03:52:58;11.07;;;5.05;;
62554;SDS011;48610;52.144;8.624;2023-08-17T03:55:59;10.25;;;4.65;;
62554;SDS011;48610;52.144;8.624;2023-08-17T03:59:00;16.58;;;5.00;;
62554;SDS011;48610;52.144;8.624;2023-08-17T04:02:00;15.70;;;4.90;;
62554;SDS011;48610;52.144;8.624;2023-08-17T04:05:01;11.27;;;5.18;;
62554;SDS011;48610;52.144;8.624;2023-08-17T04:08:02;13.15;;;5.15;;
62554;SDS011;48610;52.144;8.624;2023-08-17T04:11:04;9.48;;;5.03;;
62554;SDS011;48610;52.144;8.624;2023-08-17T04:14:05;12.38;;;5.47;;
62554;SDS011;48610;52.144;8.624;2023-08-17T04:17:05;12.15;;;4.93;;
62554;SDS011;48610;52.144;8.624;2023-08-17T04:20:06;9.48;;;4.95;;
62554;SDS011;48610;52.144;8.624;2023-08-17T04:23:07;16.48;;;5.38;;
62554;SDS011;48610;52.144;8.624;2023-08-17T04:26:08;18.75;;;5.82;;
62554;SDS011;48610;52.144;8.624;2023-08-17T04:29:09;11.30;;;4.63;;
62554;SDS011;48610;52.144;8.624;2023-08-17T04:32:13;11.20;;;4.97;;
62554;SDS011;48610;52.144;8.624;2023-08-17T04:35:15;9.77;;;4.72;;
62554;SDS011;48610;52.144;8.624;2023-08-17T04:38:16;15.25;;;5.15;;
62554;SDS011;48610;52.144;8.624;2023-08-17T04:41:16;8.82;;;4.90;;
62554;SDS011;48610;52.144;8.624;2023-08-17T04:44:17;10.20;;;5.43;;
62554;SDS011;48610;52.144;8.624;2023-08-17T04:47:17;15.98;;;4.93;;
62554;SDS011;48610;52.144;8.624;2023-08-17T04:50:18;10.68;;;5.38;;
62554;SDS011;48610;52.144;8.624;2023-08-17T04:53:18;10.65;;;4.97;;
62554;SDS011;48610;52.144;8.624;2023-08-17T04:56:19;20.63;;;5.07;;
62554;SDS011;48610;52.144;8.624;2023-08-17T04:59:20;8.63;;;5.32;;
62554;SDS011;48610;52.144;8.624;2023-08-17T05:02:20;9.45;;;4.80;;
62554;SDS011;48610;52.144;8.624;2023-08-17T05:05:21;11.55;;;4.85;;
62554;SDS011;48610;52.144;8.624;2023-08-17T05:08:22;11.38;;;4.57;;
62554;SDS011;48610;52.144;8.624;2023-08-17T05:11:23;16.67;;;4.88;;
62554;SDS011;48610;52.144;8.624;2023-08-17T05:14:24;8.30;;;4.80;;
62554;SDS011;48610;52.144;8.624;2023-08-17T05:17:24;9.85;;;4.95;;
62554;SDS011;48610;52.144;8.624;2023-08-17T05:20:25;11.50;;;5.45;;
62554;SDS011;48610;52.144;8.624;2023-08-17T05:23:25;14.13;;;5.38;;
62554;SDS011;48610;52.144;8.624;2023-08-17T05:26:26;13.23;;;4.68;;
62554;SDS011;48610;52.144;8.624;2023-08-17T05:29:27;9.02;;;5.85;;
62554;SDS011;48610;52.144;8.624;2023-08-17T05:32:28;10.23;;;4.70;;
62554;SDS011;48610;52.144;8.624;2023-08-17T05:35:29;14.32;;;5.45;;
62554;SDS011;48610;52.144;8.624;2023-08-17T05:38:29;9.15;;;5.50;;
62554;SDS011;48610;52.144;8.624;2023-08-17T05:41:30;10.57;;;4.57;;
62554;SDS011;48610;52.144;8.624;2023-08-17T05:44:30;10.30;;;5.30;;
62554;SDS011;48610;52.144;8.624;2023-08-17T05:47:31;20.67;;;5.38;;
62554;SDS011;48610;52.144;8.624;2023-08-17T05:50:31;11.80;;;5.43;;
62554;SDS011;48610;52.144;8.624;2023-08-17T05:53:32;13.88;;;5.88;;
62554;SDS011;48610;52.144;8.624;2023-08-17T05:56:33;15.77;;;5.45;;
62554;SDS011;48610;52.144;8.624;2023-08-17T05:59:33;13.90;;;5.28;;
62554;SDS011;48610;52.144;8.624;2023-08-17T06:02:34;14.38;;;6.38;;
62554;SDS011;48610;52.144;8.624;2023-08-17T06:05:34;8.95;;;5.32;;
62554;SDS011;48610;52.144;8.624;2023-08-17T06:08:35;12.13;;;6.15;;
62554;SDS011;48610;52.144;8.624;2023-08-17T06:11:36;14.75;;;6.55;;
62554;SDS011;48610;52.144;8.624;2023-08-17T06:14:36;17.80;;;6.45;;
62554;SDS011;48610;52.144;8.624;2023-08-17T06:17:37;13.15;;;6.15;;
62554;SDS011;48610;52.144;8.624;2023-08-17T06:20:37;12.02;;;6.18;;
62554;SDS011;48610;52.144;8.624;2023-08-17T06:23:38;20.55;;;6.88;;
62554;SDS011;48610;52.144;8.624;2023-08-17T06:26:38;13.45;;;6.82;;
62554;SDS011;48610;52.144;8.624;2023-08-17T06:29:39;10.98;;;6.25;;
62554;SDS011;48610;52.144;8.624;2023-08-17T06:32:40;16.48;;;7.18;;
62554;SDS011;48610;52.144;8.624;2023-08-17T06:35:40;20.77;;;7.60;;
62554;SDS011;48610;52.144;8.624;2023-08-17T06:38:41;17.88;;;7.30;;
62554;SDS011;48610;52.144;8.624;2023-08-17T06:41:42;21.70;;;7.68;;
62554;SDS011;48610;52.144;8.624;2023-08-17T06:44:42;20.33;;;8.00;;
62554;SDS011;48610;52.144;8.624;2023-08-17T06:47:43;18.33;;;8.40;;
62554;SDS011;48610;52.144;8.624;2023-08-17T06:50:45;23.73;;;8.50;;
62554;SDS011;48610;52.144;8.624;2023-08-17T06:53:45;22.50;;;8.57;;
62554;SDS011;48610;52.144;8.624;2023-08-17T06:56:46;24.42;;;9.45;;
62554;SDS011;48610;52.144;8.624;2023-08-17T06:59:47;23.38;;;9.10;;
62554;SDS011;48610;52.144;8.624;2023-08-17T07:02:47;28.33;;;9.13;;
62554;SDS011;48610;52.144;8.624;2023-08-17T07:05:49;18.65;;;8.90;;
62554;SDS011;48610;52.144;8.624;2023-08-17T07:08:49;21.17;;;9.85;;
62554;SDS011;48610;52.144;8.624;2023-08-17T07:11:50;20.10;;;9.32;;
62554;SDS011;48610;52.144;8.624;2023-08-17T07:14:51;18.25;;;9.05;;
62554;SDS011;48610;52.144;8.624;2023-08-17T07:17:51;15.85;;;8.80;;
62554;SDS011;48610;52.144;8.624;2023-08-17T07:20:52;23.55;;;10.48;;
62554;SDS011;48610;52.144;8.624;2023-08-17T07:23:53;25.67;;;10.13;;
62554;SDS011;48610;52.144;8.624;2023-08-17T07:26:54;24.83;;;10.52;;
62554;SDS011;48610;52.144;8.624;2023-08-17T07:29:55;25.50;;;9.90;;
62554;SDS011;48610;52.144;8.624;2023-08-17T07:32:55;21.52;;;10.52;;
62554;SDS011;48610;52.144;8.624;2023-08-17T07:35:56;19.80;;;10.23;;
62554;SDS011;48610;52.144;8.624;2023-08-17T07:38:58;19.80;;;9.38;;
62554;SDS011;48610;52.144;8.624;2023-08-17T07:41:59;23.15;;;10.10;;
62554;SDS011;48610;52.144;8.624;2023-08-17T07:44:59;20.48;;;10.23;;
62554;SDS011;48610;52.144;8.624;2023-08-17T07:48:01;22.15;;;8.80;;
62554;SDS011;48610;52.144;8.624;2023-08-17T07:51:02;25.85;;;10.32;;
62554;SDS011;48610;52.144;8.624;2023-08-17T07:54:02;18.67;;;8.98;;
62554;SDS011;48610;52.144;8.624;2023-08-17T07:57:03;18.08;;;8.38;;
62554;SDS011;48610;52.144;8.624;2023-08-17T08:00:04;13.05;;;8.48;;
62554;SDS011;48610;52.144;8.624;2023-08-17T08:03:05;19.02;;;8.60;;
62554;SDS011;48610;52.144;8.624;2023-08-17T08:06:06;20.83;;;9.55;;
62554;SDS011;48610;52.144;8.624;2023-08-17T08:09:06;20.83;;;8.77;;
62554;SDS011;48610;52.144;8.624;2023-08-17T08:12:07;15.07;;;7.93;;
62554;SDS011;48610;52.144;8.624;2023-08-17T08:15:08;15.57;;;8.88;;
62554;SDS011;48610;52.144;8.624;2023-08-17T08:18:09;20.15;;;8.63;;
62554;SDS011;48610;52.144;8.624;2023-08-17T08:21:09;16.48;;;8.73;;
62554;SDS011;48610;52.144;8.624;2023-08-17T08:24:10;13.77;;;8.73;;
62554;SDS011;48610;52.144;8.624;2023-08-17T08:27:10;17.80;;;9.45;;
62554;SDS011;48610;52.144;8.624;2023-08-17T08:30:11;21.90;;;9.43;;
62554;SDS011;48610;52.144;8.624;2023-08-17T08:33:12;21.77;;;9.45;;
62554;SDS011;48610;52.144;8.624;2023-08-17T08:36:12;17.27;;;8.55;;
62554;SDS011;48610;52.144;8.624;2023-08-17T08:39:13;15.88;;;8.55;;
62554;SDS011;48610;52.144;8.624;2023-08-17T08:42:14;20.33;;;8.40;;
62554;SDS011;48610;52.144;8.624;2023-08-17T08:45:14;16.35;;;9.50;;
62554;SDS011;48610;52.144;8.624;2023-08-17T08:48:15;17.25;;;9.15;;
62554;SDS011;48610;52.144;8.624;2023-08-17T08:51:19;18.27;;;8.88;;
62554;SDS011;48610;52.144;8.624;2023-08-17T08:54:27;24.10;;;9.07;;
62554;SDS011;48610;52.144;8.624;2023-08-17T08:57:29;14.57;;;9.07;;
62554;SDS011;48610;52.144;8.624;2023-08-17T09:00:30;17.05;;;9.50;;
62554;SDS011;48610;52.144;8.624;2023-08-17T09:03:32;17.23;;;9.57;;
62554;SDS011;48610;52.144;8.624;2023-08-17T09:06:34;19.05;;;9.43;;
62554;SDS011;48610;52.144;8.624;2023-08-17T09:09:35;16.63;;;9.82;;
62554;SDS011;48610;52.144;8.624;2023-08-17T09:12:36;20.17;;;10.02;;
62554;SDS011;48610;52.144;8.624;2023-08-17T09:15:36;20.50;;;9.82;;
62554;SDS011;48610;52.144;8.624;2023-08-17T09:18:37;22.90;;;10.80;;
62554;SDS011;48610;52.144;8.624;2023-08-17T09:21:38;20.13;;;10.52;;
62554;SDS011;48610;52.144;8.624;2023-08-17T09:24:38;18.17;;;9.80;;
62554;SDS011;48610;52.144;8.624;2023-08-17T09:27:39;25.27;;;10.88;;
62554;SDS011;48610;52.144;8.624;2023-08-17T09:30:54;19.88;;;10.98;;
62554;SDS011;48610;52.144;8.624;2023-08-17T09:33:58;21.80;;;10.88;;
62554;SDS011;48610;52.144;8.624;2023-08-17T09:37:06;21.10;;;11.43;;
62554;SDS011;48610;52.144;8.624;2023-08-17T09:40:06;22.83;;;11.35;;
62554;SDS011;48610;52.144;8.624;2023-08-17T09:43:09;21.83;;;11.60;;
62554;SDS011;48610;52.144;8.624;2023-08-17T09:46:10;20.42;;;10.63;;
62554;SDS011;48610;52.144;8.624;2023-08-17T09:49:11;19.45;;;11.65;;
62554;SDS011;48610;52.144;8.624;2023-08-17T09:52:11;21.05;;;11.88;;
62554;SDS011;48610;52.144;8.624;2023-08-17T09:55:14;27.98;;;12.15;;
62554;SDS011;48610;52.144;8.624;2023-08-17T09:58:15;20.23;;;12.45;;
62554;SDS011;48610;52.144;8.624;2023-08-17T10:01:15;24.80;;;11.85;;
62554;SDS011;48610;52.144;8.624;2023-08-17T10:04:19;30.08;;;11.95;;
62554;SDS011;48610;52.144;8.624;2023-08-17T10:07:24;19.05;;;11.10;;
62554;SDS011;48610;52.144;8.624;2023-08-17T10:10:31;22.42;;;11.70;;
62554;SDS011;48610;52.144;8.624;2023-08-17T10:13:35;20.70;;;10.93;;
62554;SDS011;48610;52.144;8.624;2023-08-17T10:16:57;20.30;;;10.25;;
62554;SDS011;48610;52.144;8.624;2023-08-17T10:20:02;20.25;;;10.88;;
62554;SDS011;48610;52.144;8.624;2023-08-17T10:23:08;23.55;;;10.82;;
62554;SDS011;48610;52.144;8.624;2023-08-17T10:26:14;22.33;;;10.43;;
62554;SDS011;48610;52.144;8.624;2023-08-17T10:29:16;21.05;;;10.43;;
62554;SDS011;48610;52.144;8.624;2023-08-17T10:32:18;21.15;;;12.13;;
62554;SDS011;48610;52.144;8.624;2023-08-17T10:35:21;20.13;;;12.02;;
62554;SDS011;48610;52.144;8.624;2023-08-17T10:38:22;22.52;;;10.88;;
62554;SDS011;48610;52.144;8.624;2023-08-17T10:41:23;19.15;;;11.35;;
62554;SDS011;48610;52.144;8.624;2023-08-17T10:44:37;18.92;;;11.43;;
62554;SDS011;48610;52.144;8.624;2023-08-17T10:47:45;22.83;;;12.45;;
62554;SDS011;48610;52.144;8.624;2023-08-17T10:50:58;25.25;;;11.73;;
62554;SDS011;48610;52.144;8.624;2023-08-17T10:54:03;29.10;;;12.20;;
62554;SDS011;48610;52.144;8.624;2023-08-17T11:00:27;33.28;;;12.40;;
62554;SDS011;48610;52.144;8.624;2023-08-17T11:03:34;23.25;;;11.93;;
62554;SDS011;48610;52.144;8.624;2023-08-17T11:06:36;26.98;;;11.95;;
62554;SDS011;48610;52.144;8.624;2023-08-17T11:09:37;18.98;;;10.32;;
62554;SDS011;48610;52.144;8.624;2023-08-17T11:12:38;18.65;;;10.43;;
62554;SDS011;48610;52.144;8.624;2023-08-17T11:15:41;24.48;;;10.63;;
62554;SDS011;48610;52.144;8.624;2023-08-17T11:18:43;22.77;;;10.65;;
62554;SDS011;48610;52.144;8.624;2023-08-17T11:21:44;19.88;;;10.60;;
62554;SDS011;48610;52.144;8.624;2023-08-17T11:24:46;28.40;;;10.07;;
62554;SDS011;48610;52.144;8.624;2023-08-17T11:27:48;29.33;;;10.73;;
62554;SDS011;48610;52.144;8.624;2023-08-17T11:30:59;22.80;;;11.45;;
62554;SDS011;48610;52.144;8.624;2023-08-17T11:34:01;22.98;;;10.68;;
62554;SDS011;48610;52.144;8.624;2023-08-17T11:37:02;28.60;;;11.18;;
62554;SDS011;48610;52.144;8.624;2023-08-17T11:40:02;21.35;;;10.35;;
62554;SDS011;48610;52.144;8.624;2023-08-17T11:43:04;23.55;;;9.63;;
62554;SDS011;48610;52.144;8.624;2023-08-17T11:46:05;20.98;;;10.00;;
62554;SDS011;48610;52.144;8.624;2023-08-17T11:49:06;25.35;;;10.10;;
62554;SDS011;48610;52.144;8.624;2023-08-17T11:52:09;23.30;;;10.95;;
62554;SDS011;48610;52.144;8.624;2023-08-17T11:55:10;20.27;;;10.60;;
62554;SDS011;48610;52.144;8.624;2023-08-17T11:58:11;20.40;;;10.13;;
62554;SDS011;48610;52.144;8.624;2023-08-17T12:01:12;27.45;;;10.18;;
62554;SDS011;48610;52.144;8.624;2023-08-17T12:04:12;16.85;;;8.85;;
62554;SDS011;48610;52.144;8.624;2023-08-17T12:07:13;15.93;;;9.85;;
62554;SDS011;48610;52.144;8.624;2023-08-17T12:10:14;24.48;;;9.48;;
62554;SDS011;48610;52.144;8.624;2023-08-17T12:13:15;27.23;;;9.95;;
62554;SDS011;48610;52.144;8.624;2023-08-17T12:16:16;15.88;;;8.32;;
62554;SDS011;48610;52.144;8.624;2023-08-17T12:19:20;17.48;;;8.23;;
62554;SDS011;48610;52.144;8.624;2023-08-17T12:22:23;14.00;;;7.70;;
62554;SDS011;48610;52.144;8.624;2023-08-17T12:25:25;16.63;;;8.77;;
62554;SDS011;48610;52.144;8.624;2023-08-17T12:28:26;16.48;;;8.65;;
62554;SDS011;48610;52.144;8.624;2023-08-17T12:31:28;18.50;;;8.07;;
62554;SDS011;48610;52.144;8.624;2023-08-17T12:34:29;24.05;;;9.45;;
62554;SDS011;48610;52.144;8.624;2023-08-17T12:37:30;15.75;;;8.50;;
62554;SDS011;48610;52.144;8.624;2023-08-17T12:40:30;24.92;;;9.25;;
62554;SDS011;48610;52.144;8.624;2023-08-17T12:43:31;17.38;;;8.65;;
62554;SDS011;48610;52.144;8.624;2023-08-17T12:46:31;22.00;;;9.05;;
62554;SDS011;48610;52.144;8.624;2023-08-17T12:49:35;15.75;;;8.77;;
62554;SDS011;48610;52.144;8.624;2023-08-17T12:52:36;17.95;;;8.32;;
62554;SDS011;48610;52.144;8.624;2023-08-17T12:55:36;15.77;;;7.80;;
62554;SDS011;48610;52.144;8.624;2023-08-17T12:58:37;14.57;;;7.07;;
62554;SDS011;48610;52.144;8.624;2023-08-17T13:01:38;15.75;;;7.13;;
62554;SDS011;48610;52.144;8.624;2023-08-17T13:04:39;16.00;;;7.35;;
62554;SDS011;48610;52.144;8.624;2023-08-17T13:07:41;15.70;;;6.88;;
62554;SDS011;48610;52.144;8.624;2023-08-17T13:10:41;16.27;;;6.72;;
62554;SDS011;48610;52.144;8.624;2023-08-17T13:13:42;13.65;;;7.05;;
62554;SDS011;48610;52.144;8.624;2023-08-17T13:16:43;15.00;;;7.50;;
62554;SDS011;48610;52.144;8.624;2023-08-17T13:19:43;19.73;;;7.32;;
62554;SDS011;48610;52.144;8.624;2023-08-17T13:22:44;16.17;;;7.45;;
62554;SDS011;48610;52.144;8.624;2023-08-17T13:25:44;14.38;;;7.28;;
62554;SDS011;48610;52.144;8.624;2023-08-17T13:28:45;17.20;;;7.55;;
62554;SDS011;48610;52.144;8.624;2023-08-17T13:31:46;19.75;;;8.75;;
62554;SDS011;48610;52.144;8.624;2023-08-17T13:34:48;18.50;;;8.10;;
62554;SDS011;48610;52.144;8.624;2023-08-17T13:37:52;20.73;;;8.43;;
62554;SDS011;48610;52.144;8.624;2023-08-17T13:40:57;18.98;;;8.30;;
62554;SDS011;48610;52.144;8.624;2023-08-17T13:43:58;24.48;;;8.70;;
62554;SDS011;48610;52.144;8.624;2023-08-17T13:47:00;21.25;;;9.30;;
62554;SDS011;48610;52.144;8.624;2023-08-17T13:50:01;30.73;;;8.93;;
62554;SDS011;48610;52.144;8.624;2023-08-17T13:53:03;20.30;;;9.02;;
62554;SDS011;48610;52.144;8.624;2023-08-17T13:56:03;18.95;;;7.95;;
62554;SDS011;48610;52.144;8.624;2023-08-17T13:59:04;21.38;;;8.40;;
62554;SDS011;48610;52.144;8.624;2023-08-17T14:02:05;15.05;;;7.88;;
62554;SDS011;48610;52.144;8.624;2023-08-17T14:05:06;18.55;;;8.63;;
62554;SDS011;48610;52.144;8.624;2023-08-17T14:08:07;20.70;;;8.55;;
62554;SDS011;48610;52.144;8.624;2023-08-17T14:11:08;28.60;;;8.60;;
62554;SDS011;48610;52.144;8.624;2023-08-17T14:14:08;28.02;;;8.82;;
62554;SDS011;48610;52.144;8.624;2023-08-17T14:17:09;21.02;;;8.02;;
62554;SDS011;48610;52.144;8.624;2023-08-17T14:20:09;19.38;;;8.48;;
62554;SDS011;48610;52.144;8.624;2023-08-17T14:23:11;20.27;;;7.65;;
62554;SDS011;48610;52.144;8.624;2023-08-17T14:26:11;15.77;;;7.80;;
62554;SDS011;48610;52.144;8.624;2023-08-17T14:29:12;24.85;;;7.43;;
62554;SDS011;48610;52.144;8.624;2023-08-17T14:32:13;24.33;;;8.82;;
62554;SDS011;48610;52.144;8.624;2023-08-17T14:35:14;29.90;;;9.10;;
62554;SDS011;48610;52.144;8.624;2023-08-17T14:38:14;17.88;;;7.60;;
62554;SDS011;48610;52.144;8.624;2023-08-17T14:41:19;22.45;;;8.05;;
62554;SDS011;48610;52.144;8.624;2023-08-17T14:44:20;24.38;;;8.32;;
62554;SDS011;48610;52.144;8.624;2023-08-17T14:47:21;21.80;;;8.40;;
62554;SDS011;48610;52.144;8.624;2023-08-17T14:50:21;23.15;;;8.57;;
62554;SDS011;48610;52.144;8.624;2023-08-17T14:53:22;22.00;;;8.40;;
62554;SDS011;48610;52.144;8.624;2023-08-17T14:56:23;23.50;;;8.02;;
62554;SDS011;48610;52.144;8.624;2023-08-17T14:59:23;25.58;;;8.18;;
62554;SDS011;48610;52.144;8.624;2023-08-17T15:02:24;22.48;;;8.05;;
62554;SDS011;48610;52.144;8.624;2023-08-17T15:05:25;21.95;;;7.80;;
62554;SDS011;48610;52.144;8.624;2023-08-17T15:08:26;26.15;;;8.63;;
62554;SDS011;48610;52.144;8.624;2023-08-17T15:11:26;19.58;;;7.80;;
62554;SDS011;48610;52.144;8.624;2023-08-17T15:14:27;22.77;;;8.52;;
62554;SDS011;48610;52.144;8.624;2023-08-17T15:17:27;21.17;;;8.23;;
62554;SDS011;48610;52.144;8.624;2023-08-17T15:20:28;24.92;;;8.88;;
62554;SDS011;48610;52.144;8.624;2023-08-17T15:23:30;21.67;;;8.52;;
62554;SDS011;48610;52.144;8.624;2023-08-17T15:26:30;32.50;;;8.05;;
62554;SDS011;48610;52.144;8.624;2023-08-17T15:29:31;26.73;;;8.98;;
62554;SDS011;48610;52.144;8.624;2023-08-17T15:32:32;24.58;;;8.27;;
62554;SDS011;48610;52.144;8.624;2023-08-17T15:35:33;18.98;;;8.35;;
62554;SDS011;48610;52.144;8.624;2023-08-17T15:38:33;20.52;;;7.38;;
62554;SDS011;48610;52.144;8.624;2023-08-17T15:41:34;19.75;;;8.18;;
62554;SDS011;48610;52.144;8.624;2023-08-17T15:44:35;26.38;;;8.77;;
62554;SDS011;48610;52.144;8.624;2023-08-17T15:47:35;23.10;;;8.65;;
62554;SDS011;48610;52.144;8.624;2023-08-17T15:50:36;34.72;;;8.43;;
62554;SDS011;48610;52.144;8.624;2023-08-17T15:53:36;24.70;;;8.45;;
62554;SDS011;48610;52.144;8.624;2023-08-17T15:56:39;23.25;;;8.35;;
62554;SDS011;48610;52.144;8.624;2023-08-17T15:59:39;25.92;;;8.77;;
62554;SDS011;48610;52.144;8.624;2023-08-17T16:02:40;22.60;;;8.75;;
62554;SDS011;48610;52.144;8.624;2023-08-17T16:05:41;19.73;;;8.05;;
62554;SDS011;48610;52.144;8.624;2023-08-17T16:08:42;24.42;;;8.45;;
62554;SDS011;48610;52.144;8.624;2023-08-17T16:11:43;21.25;;;8.13;;
62554;SDS011;48610;52.144;8.624;2023-08-17T16:14:44;27.80;;;8.15;;
62554;SDS011;48610;52.144;8.624;2023-08-17T16:17:44;20.38;;;7.43;;
62554;SDS011;48610;52.144;8.624;2023-08-17T16:20:45;22.45;;;7.85;;
62554;SDS011;48610;52.144;8.624;2023-08-17T16:23:45;17.88;;;7.68;;
62554;SDS011;48610;52.144;8.624;2023-08-17T16:26:46;18.05;;;7.40;;
62554;SDS011;48610;52.144;8.624;2023-08-17T16:29:47;20.98;;;7.22;;
62554;SDS011;48610;52.144;8.624;2023-08-17T16:32:48;24.10;;;7.78;;
62554;SDS011;48610;52.144;8.624;2023-08-17T16:35:48;13.57;;;6.85;;
62554;SDS011;48610;52.144;8.624;2023-08-17T16:38:49;20.90;;;7.35;;
62554;SDS011;48610;52.144;8.624;2023-08-17T16:41:50;12.43;;;6.53;;
62554;SDS011;48610;52.144;8.624;2023-08-17T16:44:50;16.60;;;6.88;;
62554;SDS011;48610;52.144;8.624;2023-08-17T16:47:51;14.43;;;6.55;;
62554;SDS011;48610;52.144;8.624;2023-08-17T16:50:51;17.30;;;7.60;;
62554;SDS011;48610;52.144;8.624;2023-08-17T16:53:52;21.95;;;7.22;;
62554;SDS011;48610;52.144;8.624;2023-08-17T16:56:54;17.00;;;6.93;;
62554;SDS011;48610;52.144;8.624;2023-08-17T16:59:54;23.25;;;7.63;;
62554;SDS011;48610;52.144;8.624;2023-08-17T17:02:55;14.13;;;7.20;;
62554;SDS011;48610;52.144;8.624;2023-08-17T17:05:55;15.68;;;7.32;;
62554;SDS011;48610;52.144;8.624;2023-08-17T17:08:56;14.80;;;6.45;;
62554;SDS011;48610;52.144;8.624;2023-08-17T17:11:57;15.63;;;7.50;;
62554;SDS011;48610;52.144;8.624;2023-08-17T17:14:57;19.48;;;7.50;;
62554;SDS011;48610;52.144;8.624;2023-08-17T17:17:58;11.60;;;7.05;;
62554;SDS011;48610;52.144;8.624;2023-08-17T17:20:59;18.98;;;7.70;;
62554;SDS011;48610;52.144;8.624;2023-08-17T17:23:59;13.88;;;7.47;;
62554;SDS011;48610;52.144;8.624;2023-08-17T17:27:00;14.88;;;7.47;;
62554;SDS011;48610;52.144;8.624;2023-08-17T17:30:00;12.25;;;6.93;;
62554;SDS011;48610;52.144;8.624;2023-08-17T17:33:01;19.58;;;7.00;;
62554;SDS011;48610;52.144;8.624;2023-08-17T17:36:02;17.63;;;7.13;;
62554;SDS011;48610;52.144;8.624;2023-08-17T17:39:03;16.55;;;7.03;;
62554;SDS011;48610;52.144;8.624;2023-08-17T17:42:04;19.58;;;6.22;;
62554;SDS011;48610;52.144;8.624;2023-08-17T17:45:05;12.93;;;7.13;;
62554;SDS011;48610;52.144;8.624;2023-08-17T17:48:06;11.30;;;6.38;;
62554;SDS011;48610;52.144;8.624;2023-08-17T17:51:06;15.75;;;7.05;;
62554;SDS011;48610;52.144;8.624;2023-08-17T17:54:07;21.45;;;6.78;;
62554;SDS011;48610;52.144;8.624;2023-08-17T17:57:08;16.95;;;7.57;;
62554;SDS011;48610;52.144;8.624;2023-08-17T18:00:08;13.48;;;6.05;;